sensor_id;sensor_type;location;lat;lon;timestamp;temperature;humidity
12847;DHT22;6492;48.128;8.320;2023-04-03T00:03:14;0.50;75.50
12847;DHT22;6492;48.128;8.320;2023-04-03T00:07:16;0.40;75.40
12847;DHT22;6492;48.128;8.320;2023-04-03T00:11:18;0.30;75.20
12847;DHT22;6492;48.128;8.320;2023-04-03T00:15:21;0.30;75.40
12847;DHT22;6492;48.128;8.320;2023-04-03T00:19:24;0.30;75.40
12847;DHT22;6492;48.128;8.320;2023-04-03T00:23:26;0.30;75.60
12847;DHT22;6492;48.128;8.320;2023-04-03T00:27:27;0.20;75.40
12847;DHT22;6492;48.128;8.320;2023-04-03T00:31:29;0.20;75.50
12847;DHT22;6492;48.128;8.320;2023-04-03T00:35:34;0.20;75.60
12847;DHT22;6492;48.128;8.320;2023-04-03T00:39:36;0.20;75.50
12847;DHT22;6492;48.128;8.320;2023-04-03T00:43:37;0.10;75.50
12847;DHT22;6492;48.128;8.320;2023-04-03T00:47:41;0.10;75.50
12847;DHT22;6492;48.128;8.320;2023-04-03T00:51:44;0.10;75.60
12847;DHT22;6492;48.128;8.320;2023-04-03T00:55:47;0.10;76.50
12847;DHT22;6492;48.128;8.320;2023-04-03T00:59:53;0.10;75.70
12847;DHT22;6492;48.128;8.320;2023-04-03T01:03:59;0.10;75.70
12847;DHT22;6492;48.128;8.320;2023-04-03T01:08:05;0.10;75.70
12847;DHT22;6492;48.128;8.320;2023-04-03T01:12:14;0.10;75.90
12847;DHT22;6492;48.128;8.320;2023-04-03T01:16:17;0.10;75.90
12847;DHT22;6492;48.128;8.320;2023-04-03T01:20:50;0.10;75.80
12847;DHT22;6492;48.128;8.320;2023-04-03T01:25:01;0.10;75.90
12847;DHT22;6492;48.128;8.320;2023-04-03T01:29:03;0.10;76.00
12847;DHT22;6492;48.128;8.320;2023-04-03T01:33:07;0.10;75.90
12847;DHT22;6492;48.128;8.320;2023-04-03T01:37:08;0.00;75.90
12847;DHT22;6492;48.128;8.320;2023-04-03T01:41:11;0.10;76.00
12847;DHT22;6492;48.128;8.320;2023-04-03T01:45:13;0.00;75.90
12847;DHT22;6492;48.128;8.320;2023-04-03T01:49:17;0.00;75.90
12847;DHT22;6492;48.128;8.320;2023-04-03T01:53:19;0.10;76.00
12847;DHT22;6492;48.128;8.320;2023-04-03T01:57:20;0.10;76.00
12847;DHT22;6492;48.128;8.320;2023-04-03T02:01:22;0.00;75.90
12847;DHT22;6492;48.128;8.320;2023-04-03T02:05:25;0.00;76.00
12847;DHT22;6492;48.128;8.320;2023-04-03T02:09:27;0.00;75.90
12847;DHT22;6492;48.128;8.320;2023-04-03T02:13:29;0.00;76.00
12847;DHT22;6492;48.128;8.320;2023-04-03T02:17:31;0.10;76.10
12847;DHT22;6492;48.128;8.320;2023-04-03T02:21:34;0.00;75.90
12847;DHT22;6492;48.128;8.320;2023-04-03T02:25:36;0.00;75.90
12847;DHT22;6492;48.128;8.320;2023-04-03T02:29:37;0.00;75.90
12847;DHT22;6492;48.128;8.320;2023-04-03T02:33:39;0.00;75.90
12847;DHT22;6492;48.128;8.320;2023-04-03T02:37:43;0.00;76.00
12847;DHT22;6492;48.128;8.320;2023-04-03T02:41:44;0.00;76.00
12847;DHT22;6492;48.128;8.320;2023-04-03T02:45:46;0.00;76.10
12847;DHT22;6492;48.128;8.320;2023-04-03T02:49:48;0.00;76.00
12847;DHT22;6492;48.128;8.320;2023-04-03T02:53:51;0.00;76.00
12847;DHT22;6492;48.128;8.320;2023-04-03T02:57:53;0.00;75.90
12847;DHT22;6492;48.128;8.320;2023-04-03T03:01:55;-0.10;76.70
12847;DHT22;6492;48.128;8.320;2023-04-03T03:06:04;-0.10;75.90
12847;DHT22;6492;48.128;8.320;2023-04-03T03:10:08;-0.10;75.90
12847;DHT22;6492;48.128;8.320;2023-04-03T03:14:10;-0.20;75.80
12847;DHT22;6492;48.128;8.320;2023-04-03T03:18:12;-0.20;75.80
12847;DHT22;6492;48.128;8.320;2023-04-03T03:22:13;-0.20;75.80
12847;DHT22;6492;48.128;8.320;2023-04-03T03:26:16;-0.20;75.80
12847;DHT22;6492;48.128;8.320;2023-04-03T03:30:18;-0.20;75.80
12847;DHT22;6492;48.128;8.320;2023-04-03T03:34:20;-0.30;75.80
12847;DHT22;6492;48.128;8.320;2023-04-03T03:38:23;-0.30;75.80
12847;DHT22;6492;48.128;8.320;2023-04-03T03:42:26;-0.30;75.80
12847;DHT22;6492;48.128;8.320;2023-04-03T03:46:28;-0.30;75.80
12847;DHT22;6492;48.128;8.320;2023-04-03T03:50:29;-0.30;75.90
12847;DHT22;6492;48.128;8.320;2023-04-03T03:54:31;-0.30;75.70
12847;DHT22;6492;48.128;8.320;2023-04-03T03:58:34;-0.40;75.50
12847;DHT22;6492;48.128;8.320;2023-04-03T04:02:36;-0.40;75.40
12847;DHT22;6492;48.128;8.320;2023-04-03T04:06:38;-0.50;75.40
12847;DHT22;6492;48.128;8.320;2023-04-03T04:10:39;-0.50;75.40
12847;DHT22;6492;48.128;8.320;2023-04-03T04:14:42;-0.40;75.50
12847;DHT22;6492;48.128;8.320;2023-04-03T04:18:47;-0.40;75.60
12847;DHT22;6492;48.128;8.320;2023-04-03T04:22:48;-0.40;75.60
12847;DHT22;6492;48.128;8.320;2023-04-03T04:26:50;-0.40;75.50
12847;DHT22;6492;48.128;8.320;2023-04-03T04:30:53;-0.50;75.50
12847;DHT22;6492;48.128;8.320;2023-04-03T04:34:55;-0.40;75.60
12847;DHT22;6492;48.128;8.320;2023-04-03T04:38:57;-0.50;75.50
12847;DHT22;6492;48.128;8.320;2023-04-03T04:42:59;-0.50;75.60
12847;DHT22;6492;48.128;8.320;2023-04-03T04:47:02;-0.50;75.60
12847;DHT22;6492;48.128;8.320;2023-04-03T04:51:04;-0.40;75.80
12847;DHT22;6492;48.128;8.320;2023-04-03T04:55:06;-0.50;75.40
12847;DHT22;6492;48.128;8.320;2023-04-03T04:59:08;-0.50;75.60
12847;DHT22;6492;48.128;8.320;2023-04-03T05:03:13;-0.50;75.50
12847;DHT22;6492;48.128;8.320;2023-04-03T05:07:15;-0.50;75.50
12847;DHT22;6492;48.128;8.320;2023-04-03T05:11:17;-0.50;75.40
12847;DHT22;6492;48.128;8.320;2023-04-03T05:15:19;-0.50;75.30
12847;DHT22;6492;48.128;8.320;2023-04-03T05:19:22;-0.50;75.30
12847;DHT22;6492;48.128;8.320;2023-04-03T05:23:24;-0.50;75.30
12847;DHT22;6492;48.128;8.320;2023-04-03T05:27:26;-0.50;75.30
12847;DHT22;6492;48.128;8.320;2023-04-03T05:31:28;-0.60;75.10
12847;DHT22;6492;48.128;8.320;2023-04-03T05:35:32;-0.60;75.00
12847;DHT22;6492;48.128;8.320;2023-04-03T05:39:33;-0.60;75.00
12847;DHT22;6492;48.128;8.320;2023-04-03T05:43:42;-0.60;75.10
12847;DHT22;6492;48.128;8.320;2023-04-03T05:47:44;-0.50;74.90
12847;DHT22;6492;48.128;8.320;2023-04-03T05:51:47;-0.50;74.70
12847;DHT22;6492;48.128;8.320;2023-04-03T05:55:49;-0.50;74.40
12847;DHT22;6492;48.128;8.320;2023-04-03T05:59:51;-0.50;74.40
12847;DHT22;6492;48.128;8.320;2023-04-03T06:03:53;-0.50;74.30
12847;DHT22;6492;48.128;8.320;2023-04-03T06:07:57;-0.50;73.90
12847;DHT22;6492;48.128;8.320;2023-04-03T06:11:59;-0.40;73.40
12847;DHT22;6492;48.128;8.320;2023-04-03T06:16:01;-0.40;72.80
12847;DHT22;6492;48.128;8.320;2023-04-03T06:20:05;-0.40;72.30
12847;DHT22;6492;48.128;8.320;2023-04-03T06:24:13;-0.30;72.10
12847;DHT22;6492;48.128;8.320;2023-04-03T06:28:16;-0.30;71.20
12847;DHT22;6492;48.128;8.320;2023-04-03T06:32:19;-0.20;70.80
12847;DHT22;6492;48.128;8.320;2023-04-03T06:36:21;-0.20;69.10
12847;DHT22;6492;48.128;8.320;2023-04-03T06:40:25;-0.20;67.70
12847;DHT22;6492;48.128;8.320;2023-04-03T06:44:27;-0.20;66.00
12847;DHT22;6492;48.128;8.320;2023-04-03T06:48:29;-0.10;65.30
12847;DHT22;6492;48.128;8.320;2023-04-03T06:52:31;-0.10;64.30
12847;DHT22;6492;48.128;8.320;2023-04-03T06:56:34;-0.10;63.20
12847;DHT22;6492;48.128;8.320;2023-04-03T07:00:36;-0.10;62.90
12847;DHT22;6492;48.128;8.320;2023-04-03T07:04:38;0.00;61.30
12847;DHT22;6492;48.128;8.320;2023-04-03T07:08:40;0.10;60.30
12847;DHT22;6492;48.128;8.320;2023-04-03T07:12:44;0.00;58.90
12847;DHT22;6492;48.128;8.320;2023-04-03T07:16:46;0.00;57.30
12847;DHT22;6492;48.128;8.320;2023-04-03T07:20:47;0.00;56.70
12847;DHT22;6492;48.128;8.320;2023-04-03T07:24:49;0.00;56.30
12847;DHT22;6492;48.128;8.320;2023-04-03T07:28:52;0.10;55.20
12847;DHT22;6492;48.128;8.320;2023-04-03T07:32:54;0.10;55.40
12847;DHT22;6492;48.128;8.320;2023-04-03T07:37:10;0.30;55.60
12847;DHT22;6492;48.128;8.320;2023-04-03T07:41:14;0.60;55.40
12847;DHT22;6492;48.128;8.320;2023-04-03T07:45:19;0.70;52.30
12847;DHT22;6492;48.128;8.320;2023-04-03T07:49:21;0.70;48.60
12847;DHT22;6492;48.128;8.320;2023-04-03T07:53:23;0.90;47.80
12847;DHT22;6492;48.128;8.320;2023-04-03T07:57:25;0.90;43.80
12847;DHT22;6492;48.128;8.320;2023-04-03T08:01:28;1.10;44.30
12847;DHT22;6492;48.128;8.320;2023-04-03T08:05:36;1.10;42.60
12847;DHT22;6492;48.128;8.320;2023-04-03T08:09:38;1.20;42.80
12847;DHT22;6492;48.128;8.320;2023-04-03T08:13:40;1.30;42.10
12847;DHT22;6492;48.128;8.320;2023-04-03T08:17:44;1.40;40.90
12847;DHT22;6492;48.128;8.320;2023-04-03T08:21:46;1.40;38.50
12847;DHT22;6492;48.128;8.320;2023-04-03T08:25:48;1.10;34.80
12847;DHT22;6492;48.128;8.320;2023-04-03T08:29:51;1.10;37.30
12847;DHT22;6492;48.128;8.320;2023-04-03T08:33:56;1.50;38.60
12847;DHT22;6492;48.128;8.320;2023-04-03T08:37:58;2.10;37.50
12847;DHT22;6492;48.128;8.320;2023-04-03T08:42:05;2.70;35.30
12847;DHT22;6492;48.128;8.320;2023-04-03T08:46:11;3.00;31.70
12847;DHT22;6492;48.128;8.320;2023-04-03T08:50:18;3.40;28.50
12847;DHT22;6492;48.128;8.320;2023-04-03T08:54:28;3.60;26.30
12847;DHT22;6492;48.128;8.320;2023-04-03T08:58:31;3.80;26.50
12847;DHT22;6492;48.128;8.320;2023-04-03T09:02:41;4.00;24.70
12847;DHT22;6492;48.128;8.320;2023-04-03T09:06:49;4.20;24.30
12847;DHT22;6492;48.128;8.320;2023-04-03T09:11:04;4.50;24.20
12847;DHT22;6492;48.128;8.320;2023-04-03T09:15:17;4.70;22.60
12847;DHT22;6492;48.128;8.320;2023-04-03T09:19:26;4.80;23.20
12847;DHT22;6492;48.128;8.320;2023-04-03T09:23:35;5.00;20.90
12847;DHT22;6492;48.128;8.320;2023-04-03T09:27:38;4.80;19.00
12847;DHT22;6492;48.128;8.320;2023-04-03T09:31:42;4.80;19.60
12847;DHT22;6492;48.128;8.320;2023-04-03T09:35:45;4.60;20.40
12847;DHT22;6492;48.128;8.320;2023-04-03T09:39:51;4.70;20.90
12847;DHT22;6492;48.128;8.320;2023-04-03T09:43:54;4.50;19.90
12847;DHT22;6492;48.128;8.320;2023-04-03T09:48:05;4.40;20.60
12847;DHT22;6492;48.128;8.320;2023-04-03T09:52:19;4.70;21.50
12847;DHT22;6492;48.128;8.320;2023-04-03T09:56:25;5.00;19.90
12847;DHT22;6492;48.128;8.320;2023-04-03T10:00:31;5.00;17.20
12847;DHT22;6492;48.128;8.320;2023-04-03T10:04:39;5.00;19.60
12847;DHT22;6492;48.128;8.320;2023-04-03T10:08:41;5.00;18.40
12847;DHT22;6492;48.128;8.320;2023-04-03T10:12:45;4.60;17.00
12847;DHT22;6492;48.128;8.320;2023-04-03T10:16:50;4.60;19.40
12847;DHT22;6492;48.128;8.320;2023-04-03T10:20:55;5.10;20.90
12847;DHT22;6492;48.128;8.320;2023-04-03T10:25:03;5.60;17.50
12847;DHT22;6492;48.128;8.320;2023-04-03T10:29:18;5.80;17.20
12847;DHT22;6492;48.128;8.320;2023-04-03T10:33:39;6.20;16.00
12847;DHT22;6492;48.128;8.320;2023-04-03T10:37:57;6.70;16.70
12847;DHT22;6492;48.128;8.320;2023-04-03T10:42:04;7.00;12.10
12847;DHT22;6492;48.128;8.320;2023-04-03T10:46:12;7.20;11.80
12847;DHT22;6492;48.128;8.320;2023-04-03T10:50:29;7.10;10.50
12847;DHT22;6492;48.128;8.320;2023-04-03T10:54:38;7.00;11.10
12847;DHT22;6492;48.128;8.320;2023-04-03T10:58:44;6.70;10.40
12847;DHT22;6492;48.128;8.320;2023-04-03T11:02:51;6.50;12.60
12847;DHT22;6492;48.128;8.320;2023-04-03T11:06:58;6.80;13.10
12847;DHT22;6492;48.128;8.320;2023-04-03T11:11:05;7.20;12.20
12847;DHT22;6492;48.128;8.320;2023-04-03T11:15:13;7.10;9.80
12847;DHT22;6492;48.128;8.320;2023-04-03T11:19:20;6.90;12.10
12847;DHT22;6492;48.128;8.320;2023-04-03T11:23:26;6.80;12.90
12847;DHT22;6492;48.128;8.320;2023-04-03T11:27:33;6.40;11.40
12847;DHT22;6492;48.128;8.320;2023-04-03T11:31:44;6.20;11.50
12847;DHT22;6492;48.128;8.320;2023-04-03T11:35:52;6.10;13.50
12847;DHT22;6492;48.128;8.320;2023-04-03T11:39:58;6.20;14.00
12847;DHT22;6492;48.128;8.320;2023-04-03T11:44:03;6.50;13.50
12847;DHT22;6492;48.128;8.320;2023-04-03T11:48:06;6.80;12.90
12847;DHT22;6492;48.128;8.320;2023-04-03T11:52:58;6.90;11.30
12847;DHT22;6492;48.128;8.320;2023-04-03T11:57:01;7.00;11.20
12847;DHT22;6492;48.128;8.320;2023-04-03T12:01:45;6.80;10.70
12847;DHT22;6492;48.128;8.320;2023-04-03T12:05:47;6.80;11.20
12847;DHT22;6492;48.128;8.320;2023-04-03T12:09:59;6.60;11.80
12847;DHT22;6492;48.128;8.320;2023-04-03T12:14:04;6.40;10.20
12847;DHT22;6492;48.128;8.320;2023-04-03T12:18:40;6.00;11.20
12847;DHT22;6492;48.128;8.320;2023-04-03T12:23:07;5.30;11.90
12847;DHT22;6492;48.128;8.320;2023-04-03T12:27:26;5.10;15.50
12847;DHT22;6492;48.128;8.320;2023-04-03T12:31:40;5.10;13.70
12847;DHT22;6492;48.128;8.320;2023-04-03T12:35:56;4.80;16.10
12847;DHT22;6492;48.128;8.320;2023-04-03T12:40:08;4.90;16.00
12847;DHT22;6492;48.128;8.320;2023-04-03T12:44:26;5.10;16.10
12847;DHT22;6492;48.128;8.320;2023-04-03T12:48:39;5.30;15.20
12847;DHT22;6492;48.128;8.320;2023-04-03T12:52:52;5.20;12.80
12847;DHT22;6492;48.128;8.320;2023-04-03T12:57:09;4.90;13.40
12847;DHT22;6492;48.128;8.320;2023-04-03T13:01:16;4.70;15.60
12847;DHT22;6492;48.128;8.320;2023-04-03T13:05:25;4.60;14.20
12847;DHT22;6492;48.128;8.320;2023-04-03T13:09:29;4.70;15.80
12847;DHT22;6492;48.128;8.320;2023-04-03T13:13:31;4.90;14.80
12847;DHT22;6492;48.128;8.320;2023-04-03T13:17:38;5.20;15.10
12847;DHT22;6492;48.128;8.320;2023-04-03T13:21:40;5.50;13.60
12847;DHT22;6492;48.128;8.320;2023-04-03T13:25:44;5.80;10.10
12847;DHT22;6492;48.128;8.320;2023-04-03T13:29:50;5.80;11.90
12847;DHT22;6492;48.128;8.320;2023-04-03T13:33:57;5.90;10.30
12847;DHT22;6492;48.128;8.320;2023-04-03T13:38:03;5.80;10.40
12847;DHT22;6492;48.128;8.320;2023-04-03T13:42:20;5.70;10.50
12847;DHT22;6492;48.128;8.320;2023-04-03T13:46:25;5.60;11.40
12847;DHT22;6492;48.128;8.320;2023-04-03T13:50:30;5.40;11.50
12847;DHT22;6492;48.128;8.320;2023-04-03T13:54:33;5.20;11.00
12847;DHT22;6492;48.128;8.320;2023-04-03T13:58:36;5.20;12.10
12847;DHT22;6492;48.128;8.320;2023-04-03T14:02:39;5.20;11.80
12847;DHT22;6492;48.128;8.320;2023-04-03T14:06:42;5.00;11.00
12847;DHT22;6492;48.128;8.320;2023-04-03T14:10:45;4.50;11.20
12847;DHT22;6492;48.128;8.320;2023-04-03T14:14:47;4.40;12.60
12847;DHT22;6492;48.128;8.320;2023-04-03T14:18:50;4.30;12.80
12847;DHT22;6492;48.128;8.320;2023-04-03T14:22:54;4.60;14.00
12847;DHT22;6492;48.128;8.320;2023-04-03T14:26:57;4.80;11.10
12847;DHT22;6492;48.128;8.320;2023-04-03T14:30:59;4.90;10.80
12847;DHT22;6492;48.128;8.320;2023-04-03T14:35:01;5.00;10.60
12847;DHT22;6492;48.128;8.320;2023-04-03T14:39:05;4.80;10.50
12847;DHT22;6492;48.128;8.320;2023-04-03T14:43:18;4.80;10.10
12847;DHT22;6492;48.128;8.320;2023-04-03T14:47:23;4.90;11.50
12847;DHT22;6492;48.128;8.320;2023-04-03T14:51:25;4.70;8.90
12847;DHT22;6492;48.128;8.320;2023-04-03T14:55:29;4.30;9.10
12847;DHT22;6492;48.128;8.320;2023-04-03T14:59:32;4.00;10.60
12847;DHT22;6492;48.128;8.320;2023-04-03T15:03:34;3.80;12.60
12847;DHT22;6492;48.128;8.320;2023-04-03T15:07:38;3.70;13.20
12847;DHT22;6492;48.128;8.320;2023-04-03T15:11:41;3.70;13.20
12847;DHT22;6492;48.128;8.320;2023-04-03T15:15:43;3.80;13.30
12847;DHT22;6492;48.128;8.320;2023-04-03T15:19:45;3.90;12.80
12847;DHT22;6492;48.128;8.320;2023-04-03T15:23:47;3.90;12.70
12847;DHT22;6492;48.128;8.320;2023-04-03T15:27:50;3.80;12.50
12847;DHT22;6492;48.128;8.320;2023-04-03T15:31:52;3.60;13.20
12847;DHT22;6492;48.128;8.320;2023-04-03T15:35:54;3.30;13.80
12847;DHT22;6492;48.128;8.320;2023-04-03T15:39:56;3.30;14.00
12847;DHT22;6492;48.128;8.320;2023-04-03T15:43:59;3.40;14.50
12847;DHT22;6492;48.128;8.320;2023-04-03T15:48:01;3.70;15.60
12847;DHT22;6492;48.128;8.320;2023-04-03T15:52:03;3.80;13.40
12847;DHT22;6492;48.128;8.320;2023-04-03T15:56:05;3.70;11.80
12847;DHT22;6492;48.128;8.320;2023-04-03T16:00:11;3.50;12.00
12847;DHT22;6492;48.128;8.320;2023-04-03T16:04:13;3.50;13.20
12847;DHT22;6492;48.128;8.320;2023-04-03T16:08:16;3.60;12.60
12847;DHT22;6492;48.128;8.320;2023-04-03T16:12:18;3.60;13.10
12847;DHT22;6492;48.128;8.320;2023-04-03T16:16:22;3.50;13.40
12847;DHT22;6492;48.128;8.320;2023-04-03T16:20:25;3.40;13.20
12847;DHT22;6492;48.128;8.320;2023-04-03T16:24:27;3.30;13.10
12847;DHT22;6492;48.128;8.320;2023-04-03T16:28:29;3.30;14.30
12847;DHT22;6492;48.128;8.320;2023-04-03T16:32:32;3.10;12.80
12847;DHT22;6492;48.128;8.320;2023-04-03T16:36:34;2.90;13.10
12847;DHT22;6492;48.128;8.320;2023-04-03T16:40:37;2.80;14.20
12847;DHT22;6492;48.128;8.320;2023-04-03T16:44:39;2.60;13.90
12847;DHT22;6492;48.128;8.320;2023-04-03T16:48:42;2.40;14.20
12847;DHT22;6492;48.128;8.320;2023-04-03T16:52:45;2.30;14.50
12847;DHT22;6492;48.128;8.320;2023-04-03T16:56:47;2.10;14.50
12847;DHT22;6492;48.128;8.320;2023-04-03T17:00:49;2.00;15.80
12847;DHT22;6492;48.128;8.320;2023-04-03T17:04:52;2.00;16.40
12847;DHT22;6492;48.128;8.320;2023-04-03T17:08:54;2.00;17.10
12847;DHT22;6492;48.128;8.320;2023-04-03T17:12:55;1.90;16.50
12847;DHT22;6492;48.128;8.320;2023-04-03T17:16:57;1.80;16.30
12847;DHT22;6492;48.128;8.320;2023-04-03T17:21:00;1.70;16.30
12847;DHT22;6492;48.128;8.320;2023-04-03T17:25:03;1.50;17.40
12847;DHT22;6492;48.128;8.320;2023-04-03T17:29:04;1.40;17.70
12847;DHT22;6492;48.128;8.320;2023-04-03T17:33:06;1.30;19.00
12847;DHT22;6492;48.128;8.320;2023-04-03T17:37:09;1.20;18.40
12847;DHT22;6492;48.128;8.320;2023-04-03T17:41:11;1.10;17.80
12847;DHT22;6492;48.128;8.320;2023-04-03T17:45:13;1.00;18.50
12847;DHT22;6492;48.128;8.320;2023-04-03T17:49:14;0.80;19.50
12847;DHT22;6492;48.128;8.320;2023-04-03T17:53:19;0.70;19.50
12847;DHT22;6492;48.128;8.320;2023-04-03T17:57:21;0.60;20.60
12847;DHT22;6492;48.128;8.320;2023-04-03T18:01:24;0.60;20.80
12847;DHT22;6492;48.128;8.320;2023-04-03T18:05:27;0.50;20.70
12847;DHT22;6492;48.128;8.320;2023-04-03T18:09:32;0.50;20.50
12847;DHT22;6492;48.128;8.320;2023-04-03T18:13:34;0.40;21.10
12847;DHT22;6492;48.128;8.320;2023-04-03T18:17:37;0.40;21.80
12847;DHT22;6492;48.128;8.320;2023-04-03T18:21:44;0.30;21.70
12847;DHT22;6492;48.128;8.320;2023-04-03T18:25:48;0.30;21.80
12847;DHT22;6492;48.128;8.320;2023-04-03T18:29:53;0.30;22.00
12847;DHT22;6492;48.128;8.320;2023-04-03T18:33:55;0.20;22.40
12847;DHT22;6492;48.128;8.320;2023-04-03T18:37:58;0.20;22.20
12847;DHT22;6492;48.128;8.320;2023-04-03T18:42:06;0.10;22.90
12847;DHT22;6492;48.128;8.320;2023-04-03T18:46:08;0.00;22.50
12847;DHT22;6492;48.128;8.320;2023-04-03T18:50:11;-0.30;23.20
12847;DHT22;6492;48.128;8.320;2023-04-03T18:54:13;-0.60;24.40
12847;DHT22;6492;48.128;8.320;2023-04-03T18:58:17;-0.90;25.30
12847;DHT22;6492;48.128;8.320;2023-04-03T19:02:18;-1.10;26.40
12847;DHT22;6492;48.128;8.320;2023-04-03T19:06:22;-1.10;26.70
12847;DHT22;6492;48.128;8.320;2023-04-03T19:10:24;-1.10;27.60
12847;DHT22;6492;48.128;8.320;2023-04-03T19:14:28;-1.00;28.40
12847;DHT22;6492;48.128;8.320;2023-04-03T19:18:31;-0.90;27.60
12847;DHT22;6492;48.128;8.320;2023-04-03T19:22:33;-1.00;27.00
12847;DHT22;6492;48.128;8.320;2023-04-03T19:26:35;-1.10;27.30
12847;DHT22;6492;48.128;8.320;2023-04-03T19:30:38;-1.40;27.50
12847;DHT22;6492;48.128;8.320;2023-04-03T19:34:40;-1.50;28.70
12847;DHT22;6492;48.128;8.320;2023-04-03T19:38:41;-1.80;29.20
12847;DHT22;6492;48.128;8.320;2023-04-03T19:42:43;-1.90;30.30
12847;DHT22;6492;48.128;8.320;2023-04-03T19:46:47;-1.90;31.50
12847;DHT22;6492;48.128;8.320;2023-04-03T19:50:49;-1.80;32.40
12847;DHT22;6492;48.128;8.320;2023-04-03T19:54:50;-1.80;31.50
12847;DHT22;6492;48.128;8.320;2023-04-03T19:58:52;-1.90;30.80
12847;DHT22;6492;48.128;8.320;2023-04-03T20:02:55;-2.00;31.20
12847;DHT22;6492;48.128;8.320;2023-04-03T20:06:57;-2.10;31.40
12847;DHT22;6492;48.128;8.320;2023-04-03T20:11:04;-2.30;32.00
12847;DHT22;6492;48.128;8.320;2023-04-03T20:15:06;-2.40;32.60
12847;DHT22;6492;48.128;8.320;2023-04-03T20:19:11;-2.50;33.60
12847;DHT22;6492;48.128;8.320;2023-04-03T20:23:13;-2.70;33.90
12847;DHT22;6492;48.128;8.320;2023-04-03T20:27:15;-2.60;35.00
12847;DHT22;6492;48.128;8.320;2023-04-03T20:31:17;-2.70;35.40
12847;DHT22;6492;48.128;8.320;2023-04-03T20:35:20;-2.80;35.60
12847;DHT22;6492;48.128;8.320;2023-04-03T20:39:22;-2.80;35.90
12847;DHT22;6492;48.128;8.320;2023-04-03T20:43:24;-2.90;36.00
12847;DHT22;6492;48.128;8.320;2023-04-03T20:47:25;-3.00;37.10
12847;DHT22;6492;48.128;8.320;2023-04-03T20:51:29;-3.00;37.30
12847;DHT22;6492;48.128;8.320;2023-04-03T20:55:30;-3.10;37.00
12847;DHT22;6492;48.128;8.320;2023-04-03T20:59:33;-3.10;36.90
12847;DHT22;6492;48.128;8.320;2023-04-03T21:03:35;-3.20;37.40
12847;DHT22;6492;48.128;8.320;2023-04-03T21:21:00;-3.40;38.60
12847;DHT22;6492;48.128;8.320;2023-04-03T21:25:02;-3.40;38.90
12847;DHT22;6492;48.128;8.320;2023-04-03T21:29:05;-3.50;39.30
12847;DHT22;6492;48.128;8.320;2023-04-03T21:33:07;-3.50;39.70
12847;DHT22;6492;48.128;8.320;2023-04-03T21:37:10;-3.60;40.40
12847;DHT22;6492;48.128;8.320;2023-04-03T21:41:12;-3.60;40.70
12847;DHT22;6492;48.128;8.320;2023-04-03T21:45:14;-3.70;41.90
12847;DHT22;6492;48.128;8.320;2023-04-03T21:49:16;-3.80;41.40
12847;DHT22;6492;48.128;8.320;2023-04-03T21:53:19;-3.80;41.70
12847;DHT22;6492;48.128;8.320;2023-04-03T21:57:21;-3.80;42.20
12847;DHT22;6492;48.128;8.320;2023-04-03T22:01:23;-3.90;43.00
12847;DHT22;6492;48.128;8.320;2023-04-03T22:05:26;-3.80;43.10
12847;DHT22;6492;48.128;8.320;2023-04-03T22:09:29;-3.90;43.00
12847;DHT22;6492;48.128;8.320;2023-04-03T22:13:32;-3.90;43.40
12847;DHT22;6492;48.128;8.320;2023-04-03T22:17:33;-3.80;43.90
12847;DHT22;6492;48.128;8.320;2023-04-03T22:21:35;-3.80;43.30
12847;DHT22;6492;48.128;8.320;2023-04-03T22:25:39;-3.90;43.20
12847;DHT22;6492;48.128;8.320;2023-04-03T22:29:40;-3.90;43.50
12847;DHT22;6492;48.128;8.320;2023-04-03T22:33:43;-3.80;43.50
12847;DHT22;6492;48.128;8.320;2023-04-03T22:37:45;-3.80;42.80
12847;DHT22;6492;48.128;8.320;2023-04-03T22:41:48;-3.90;43.10
12847;DHT22;6492;48.128;8.320;2023-04-03T22:45:52;-3.90;43.60
12847;DHT22;6492;48.128;8.320;2023-04-03T22:49:53;-4.00;43.10
12847;DHT22;6492;48.128;8.320;2023-04-03T22:53:55;-4.00;44.50
12847;DHT22;6492;48.128;8.320;2023-04-03T22:57:58;-4.00;43.90
12847;DHT22;6492;48.128;8.320;2023-04-03T23:02:00;-4.10;44.30
12847;DHT22;6492;48.128;8.320;2023-04-03T23:06:03;-4.00;44.90
12847;DHT22;6492;48.128;8.320;2023-04-03T23:10:05;-4.00;45.20
12847;DHT22;6492;48.128;8.320;2023-04-03T23:14:09;-4.10;45.50
12847;DHT22;6492;48.128;8.320;2023-04-03T23:18:10;-4.00;45.40
12847;DHT22;6492;48.128;8.320;2023-04-03T23:22:12;-4.00;45.20
12847;DHT22;6492;48.128;8.320;2023-04-03T23:26:14;-4.10;45.60
12847;DHT22;6492;48.128;8.320;2023-04-03T23:30:18;-4.20;46.40
12847;DHT22;6492;48.128;8.320;2023-04-03T23:34:22;-4.30;46.30
12847;DHT22;6492;48.128;8.320;2023-04-03T23:38:24;-4.30;46.80
12847;DHT22;6492;48.128;8.320;2023-04-03T23:42:26;-4.40;47.60
12847;DHT22;6492;48.128;8.320;2023-04-03T23:46:29;-4.40;48.10
12847;DHT22;6492;48.128;8.320;2023-04-03T23:50:32;-4.40;49.10
12847;DHT22;6492;48.128;8.320;2023-04-03T23:54:34;-4.40;49.60
12847;DHT22;6492;48.128;8.320;2023-04-03T23:58:35;-4.40;49.30
